sensor_id;sensor_type;location;lat;lon;timestamp;pressure;altitude;pressure_sealevel;temperature;humidity
27144;BME280;14672;50.250;8.312;2023-03-23T00:01:14;97964.66;;;15.98;51.45
27144;BME280;14672;50.250;8.312;2023-03-23T00:03:48;97960.25;;;16.03;51.30
27144;BME280;14672;50.250;8.312;2023-03-23T00:06:14;97966.47;;;15.90;51.06
27144;BME280;14672;50.250;8.312;2023-03-23T00:08:46;97964.88;;;15.89;51.25
27144;BME280;14672;50.250;8.312;2023-03-23T00:11:20;97956.56;;;15.96;51.10
27144;BME280;14672;50.250;8.312;2023-03-23T00:13:49;97959.97;;;15.95;51.21
27144;BME280;14672;50.250;8.312;2023-03-23T00:16:22;97967.50;;;15.92;51.47
27144;BME280;14672;50.250;8.312;2023-03-23T00:18:56;97959.22;;;16.00;51.46
27144;BME280;14672;50.250;8.312;2023-03-23T00:21:24;97962.31;;;16.02;51.22
27144;BME280;14672;50.250;8.312;2023-03-23T00:23:53;97958.41;;;16.00;51.31
27144;BME280;14672;50.250;8.312;2023-03-23T00:26:19;97957.38;;;16.03;50.85
27144;BME280;14672;50.250;8.312;2023-03-23T00:28:45;97958.41;;;16.00;50.61
27144;BME280;14672;50.250;8.312;2023-03-23T00:31:12;97955.28;;;15.97;50.88
27144;BME280;14672;50.250;8.312;2023-03-23T00:33:39;97951.13;;;15.98;50.95
27144;BME280;14672;50.250;8.312;2023-03-23T00:36:10;97952.69;;;16.00;51.12
27144;BME280;14672;50.250;8.312;2023-03-23T00:38:38;97938.63;;;16.02;51.02
27144;BME280;14672;50.250;8.312;2023-03-23T00:41:05;97935.00;;;16.07;50.96
27144;BME280;14672;50.250;8.312;2023-03-23T00:43:32;97934.72;;;15.99;51.13
27144;BME280;14672;50.250;8.312;2023-03-23T00:46:03;97926.91;;;16.05;50.86
27144;BME280;14672;50.250;8.312;2023-03-23T00:48:37;97928.47;;;16.06;50.57
27144;BME280;14672;50.250;8.312;2023-03-23T00:51:11;97933.66;;;16.02;51.30
27144;BME280;14672;50.250;8.312;2023-03-23T00:53:41;97935.75;;;16.02;51.37
27144;BME280;14672;50.250;8.312;2023-03-23T00:56:08;97930.03;;;16.02;51.15
27144;BME280;14672;50.250;8.312;2023-03-23T00:58:35;97924.81;;;16.06;50.82
27144;BME280;14672;50.250;8.312;2023-03-23T01:01:01;97928.19;;;15.98;50.88
27144;BME280;14672;50.250;8.312;2023-03-23T01:03:27;97924.31;;;16.07;50.58
27144;BME280;14672;50.250;8.312;2023-03-23T01:05:54;97916.22;;;16.06;50.91
27144;BME280;14672;50.250;8.312;2023-03-23T01:08:21;97936.81;;;16.10;50.95
27144;BME280;14672;50.250;8.312;2023-03-23T01:10:48;97942.28;;;16.08;51.06
27144;BME280;14672;50.250;8.312;2023-03-23T01:13:15;97942.53;;;15.98;51.16
27144;BME280;14672;50.250;8.312;2023-03-23T01:15:42;97941.22;;;16.00;51.20
27144;BME280;14672;50.250;8.312;2023-03-23T01:18:09;97935.50;;;16.00;51.48
27144;BME280;14672;50.250;8.312;2023-03-23T01:20:36;97944.59;;;15.98;51.41
27144;BME280;14672;50.250;8.312;2023-03-23T01:23:03;97941.75;;;16.04;51.16
27144;BME280;14672;50.250;8.312;2023-03-23T01:25:32;97944.06;;;15.94;52.33
27144;BME280;14672;50.250;8.312;2023-03-23T01:28:00;97929.25;;;15.95;51.33
27144;BME280;14672;50.250;8.312;2023-03-23T01:30:26;97907.88;;;15.91;51.84
27144;BME280;14672;50.250;8.312;2023-03-23T01:32:53;97909.97;;;15.96;51.90
27144;BME280;14672;50.250;8.312;2023-03-23T01:35:19;97913.59;;;15.96;51.40
27144;BME280;14672;50.250;8.312;2023-03-23T01:37:45;97913.09;;;15.98;50.91
27144;BME280;14672;50.250;8.312;2023-03-23T01:40:14;97915.97;;;15.98;51.75
27144;BME280;14672;50.250;8.312;2023-03-23T01:42:41;97903.72;;;15.97;51.23
27144;BME280;14672;50.250;8.312;2023-03-23T01:48:16;97883.41;;;16.07;49.48
27144;BME280;14672;50.250;8.312;2023-03-23T01:50:58;97885.75;;;16.03;50.51
27144;BME280;14672;50.250;8.312;2023-03-23T01:53:43;97886.00;;;16.05;50.38
27144;BME280;14672;50.250;8.312;2023-03-23T01:56:14;97890.47;;;16.00;50.15
27144;BME280;14672;50.250;8.312;2023-03-23T01:58:41;97910.50;;;16.06;50.19
27144;BME280;14672;50.250;8.312;2023-03-23T02:01:12;97898.25;;;15.94;49.49
27144;BME280;14672;50.250;8.312;2023-03-23T02:03:43;97905.81;;;16.03;48.66
27144;BME280;14672;50.250;8.312;2023-03-23T02:06:09;97909.22;;;16.12;48.45
27144;BME280;14672;50.250;8.312;2023-03-23T02:08:36;97896.72;;;16.15;48.64
27144;BME280;14672;50.250;8.312;2023-03-23T02:11:20;97877.44;;;16.16;48.67
27144;BME280;14672;50.250;8.312;2023-03-23T02:13:48;97873.53;;;16.19;48.28
27144;BME280;14672;50.250;8.312;2023-03-23T02:16:52;97878.22;;;16.27;48.43
27144;BME280;14672;50.250;8.312;2023-03-23T02:20:01;97872.47;;;16.22;48.57
27144;BME280;14672;50.250;8.312;2023-03-23T02:23:01;97870.38;;;16.22;48.54
27144;BME280;14672;50.250;8.312;2023-03-23T02:31:56;97884.19;;;16.02;49.52
27144;BME280;14672;50.250;8.312;2023-03-23T02:34:41;97871.97;;;16.12;49.92
27144;BME280;14672;50.250;8.312;2023-03-23T02:37:14;97873.00;;;16.09;50.06
27144;BME280;14672;50.250;8.312;2023-03-23T02:39:56;97866.22;;;15.95;50.68
27144;BME280;14672;50.250;8.312;2023-03-23T02:42:28;97869.09;;;15.84;51.35
27144;BME280;14672;50.250;8.312;2023-03-23T02:45:02;97870.13;;;15.87;52.18
27144;BME280;14672;50.250;8.312;2023-03-23T02:47:29;97875.31;;;15.83;52.39
27144;BME280;14672;50.250;8.312;2023-03-23T02:49:57;97871.97;;;15.95;52.75
27144;BME280;14672;50.250;8.312;2023-03-23T02:52:31;97892.50;;;15.83;53.32
27144;BME280;14672;50.250;8.312;2023-03-23T02:55:00;97875.56;;;15.74;53.79
27144;BME280;14672;50.250;8.312;2023-03-23T02:57:28;97868.03;;;15.82;53.67
27144;BME280;14672;50.250;8.312;2023-03-23T02:59:55;97857.34;;;15.82;53.90
27144;BME280;14672;50.250;8.312;2023-03-23T03:02:28;97851.38;;;15.80;53.83
27144;BME280;14672;50.250;8.312;2023-03-23T03:05:20;97854.78;;;15.84;54.46
27144;BME280;14672;50.250;8.312;2023-03-23T03:11:09;97852.69;;;15.79;55.60
27144;BME280;14672;50.250;8.312;2023-03-23T03:19:20;97848.47;;;15.58;57.10
27144;BME280;14672;50.250;8.312;2023-03-23T03:21:49;97849.00;;;15.62;56.85
27144;BME280;14672;50.250;8.312;2023-03-23T03:24:19;97859.91;;;15.58;56.96
27144;BME280;14672;50.250;8.312;2023-03-23T03:26:50;97856.28;;;15.52;57.10
27144;BME280;14672;50.250;8.312;2023-03-23T03:29:21;97856.00;;;15.50;57.55
27144;BME280;14672;50.250;8.312;2023-03-23T03:31:50;97858.84;;;15.44;57.40
27144;BME280;14672;50.250;8.312;2023-03-23T03:34:17;97864.88;;;15.52;56.48
27144;BME280;14672;50.250;8.312;2023-03-23T03:36:46;97856.81;;;15.56;56.26
27144;BME280;14672;50.250;8.312;2023-03-23T03:39:15;97857.81;;;15.53;56.37
27144;BME280;14672;50.250;8.312;2023-03-23T03:41:43;97848.66;;;15.49;55.99
27144;BME280;14672;50.250;8.312;2023-03-23T03:44:09;97855.50;;;15.52;55.72
27144;BME280;14672;50.250;8.312;2023-03-23T03:46:36;97859.88;;;15.47;56.08
27144;BME280;14672;50.250;8.312;2023-03-23T03:49:05;97857.81;;;15.53;55.91
27144;BME280;14672;50.250;8.312;2023-03-23T03:51:33;97852.63;;;15.57;55.69
27144;BME280;14672;50.250;8.312;2023-03-23T03:53:59;97851.00;;;15.45;56.34
27144;BME280;14672;50.250;8.312;2023-03-23T03:56:25;97852.88;;;15.54;56.04
27144;BME280;14672;50.250;8.312;2023-03-23T03:58:52;97853.41;;;15.58;55.66
27144;BME280;14672;50.250;8.312;2023-03-23T04:01:20;97851.84;;;15.57;55.54
27144;BME280;14672;50.250;8.312;2023-03-23T04:03:50;97855.47;;;15.57;55.60
27144;BME280;14672;50.250;8.312;2023-03-23T04:06:17;97858.63;;;15.59;55.62
27144;BME280;14672;50.250;8.312;2023-03-23T04:08:43;97867.75;;;15.63;55.60
27144;BME280;14672;50.250;8.312;2023-03-23T04:11:12;97876.88;;;15.67;55.60
27144;BME280;14672;50.250;8.312;2023-03-23T04:13:40;97883.31;;;15.57;55.59
27144;BME280;14672;50.250;8.312;2023-03-23T04:16:06;97873.97;;;15.56;55.51
27144;BME280;14672;50.250;8.312;2023-03-23T04:18:33;97876.09;;;15.72;54.81
27144;BME280;14672;50.250;8.312;2023-03-23T04:21:01;97872.97;;;15.81;54.86
27144;BME280;14672;50.250;8.312;2023-03-23T04:23:29;97884.16;;;15.68;55.22
27144;BME280;14672;50.250;8.312;2023-03-23T04:25:58;97887.25;;;15.65;55.39
27144;BME280;14672;50.250;8.312;2023-03-23T04:28:25;97884.91;;;15.69;55.50
27144;BME280;14672;50.250;8.312;2023-03-23T04:30:52;97890.63;;;15.52;55.92
27144;BME280;14672;50.250;8.312;2023-03-23T04:33:23;97888.28;;;15.62;55.71
27144;BME280;14672;50.250;8.312;2023-03-23T04:35:53;97881.81;;;15.72;55.72
27144;BME280;14672;50.250;8.312;2023-03-23T04:38:21;97876.34;;;15.63;55.90
27144;BME280;14672;50.250;8.312;2023-03-23T04:40:50;97883.88;;;15.66;56.15
27144;BME280;14672;50.250;8.312;2023-03-23T04:43:18;97877.41;;;15.71;55.78
27144;BME280;14672;50.250;8.312;2023-03-23T04:45:57;97875.03;;;15.64;56.24
27144;BME280;14672;50.250;8.312;2023-03-23T04:48:28;97879.22;;;15.74;56.32
27144;BME280;14672;50.250;8.312;2023-03-23T04:50:55;97874.25;;;15.64;56.29
27144;BME280;14672;50.250;8.312;2023-03-23T04:53:22;97865.91;;;15.66;56.12
27144;BME280;14672;50.250;8.312;2023-03-23T04:55:48;97863.31;;;15.73;56.29
27144;BME280;14672;50.250;8.312;2023-03-23T04:58:16;97869.31;;;15.64;56.49
27144;BME280;14672;50.250;8.312;2023-03-23T05:00:43;97873.44;;;15.52;56.67
27144;BME280;14672;50.250;8.312;2023-03-23T05:03:16;97870.06;;;15.54;56.72
27144;BME280;14672;50.250;8.312;2023-03-23T05:05:43;97869.03;;;15.51;56.83
27144;BME280;14672;50.250;8.312;2023-03-23T05:08:15;97867.75;;;15.63;56.92
27144;BME280;14672;50.250;8.312;2023-03-23T05:10:41;97870.59;;;15.58;56.79
27144;BME280;14672;50.250;8.312;2023-03-23T05:13:07;97875.53;;;15.57;57.07
27144;BME280;14672;50.250;8.312;2023-03-23T05:15:32;97882.84;;;15.64;56.81
27144;BME280;14672;50.250;8.312;2023-03-23T05:17:58;97878.91;;;15.50;57.37
27144;BME280;14672;50.250;8.312;2023-03-23T05:20:24;97882.84;;;15.69;56.70
27144;BME280;14672;50.250;8.312;2023-03-23T05:22:51;97885.72;;;15.64;56.63
27144;BME280;14672;50.250;8.312;2023-03-23T05:25:18;97884.38;;;15.54;57.31
27144;BME280;14672;50.250;8.312;2023-03-23T05:27:46;97883.63;;;15.64;57.26
27144;BME280;14672;50.250;8.312;2023-03-23T05:30:15;97881.00;;;15.66;57.16
27144;BME280;14672;50.250;8.312;2023-03-23T05:32:43;97887.19;;;15.48;57.76
27144;BME280;14672;50.250;8.312;2023-03-23T05:35:11;97894.53;;;15.66;57.74
27144;BME280;14672;50.250;8.312;2023-03-23T05:37:38;97894.28;;;15.69;57.33
27144;BME280;14672;50.250;8.312;2023-03-23T05:40:05;97896.16;;;15.72;57.25
27144;BME280;14672;50.250;8.312;2023-03-23T05:42:36;97890.91;;;15.65;57.61
27144;BME280;14672;50.250;8.312;2023-03-23T05:45:04;97900.56;;;15.73;57.78
27144;BME280;14672;50.250;8.312;2023-03-23T05:47:30;97886.78;;;15.83;57.38
27144;BME280;14672;50.250;8.312;2023-03-23T05:49:56;97893.25;;;15.67;58.06
27144;BME280;14672;50.250;8.312;2023-03-23T05:52:23;97890.41;;;15.67;58.01
27144;BME280;14672;50.250;8.312;2023-03-23T05:54:50;97887.03;;;15.68;58.20
27144;BME280;14672;50.250;8.312;2023-03-23T05:57:16;97884.16;;;15.68;58.45
27144;BME280;14672;50.250;8.312;2023-03-23T05:59:44;97882.56;;;15.56;58.86
27144;BME280;14672;50.250;8.312;2023-03-23T06:02:11;97891.44;;;15.64;58.80
27144;BME280;14672;50.250;8.312;2023-03-23T06:04:36;97903.59;;;15.47;59.13
27144;BME280;14672;50.250;8.312;2023-03-23T06:07:04;97894.28;;;15.58;59.05
27144;BME280;14672;50.250;8.312;2023-03-23T06:09:30;97901.78;;;15.44;59.23
27144;BME280;14672;50.250;8.312;2023-03-23T06:11:56;97904.66;;;15.50;59.44
27144;BME280;14672;50.250;8.312;2023-03-23T06:14:22;97898.94;;;15.50;59.58
27144;BME280;14672;50.250;8.312;2023-03-23T06:16:48;97888.94;;;15.29;59.93
27144;BME280;14672;50.250;8.312;2023-03-23T06:19:14;97904.88;;;15.46;59.73
27144;BME280;14672;50.250;8.312;2023-03-23T06:21:42;97905.03;;;15.21;60.22
27144;BME280;14672;50.250;8.312;2023-03-23T06:24:09;97901.50;;;15.48;59.61
27144;BME280;14672;50.250;8.312;2023-03-23T06:26:38;97910.06;;;15.42;60.23
27144;BME280;14672;50.250;8.312;2023-03-23T06:29:05;97903.06;;;15.49;59.69
27144;BME280;14672;50.250;8.312;2023-03-23T06:31:43;97903.38;;;15.51;59.89
27144;BME280;14672;50.250;8.312;2023-03-23T06:34:10;97917.88;;;15.42;60.43
27144;BME280;14672;50.250;8.312;2023-03-23T06:36:37;97930.63;;;15.46;60.33
27144;BME280;14672;50.250;8.312;2023-03-23T06:39:04;97937.91;;;15.42;60.24
27144;BME280;14672;50.250;8.312;2023-03-23T06:41:32;97942.84;;;15.36;60.49
27144;BME280;14672;50.250;8.312;2023-03-23T06:43:59;97944.91;;;15.41;60.51
27144;BME280;14672;50.250;8.312;2023-03-23T06:46:26;97947.75;;;15.30;60.54
27144;BME280;14672;50.250;8.312;2023-03-23T06:48:53;97944.38;;;15.37;60.50
27144;BME280;14672;50.250;8.312;2023-03-23T06:51:20;97949.06;;;15.34;60.67
27144;BME280;14672;50.250;8.312;2023-03-23T06:53:46;97941.06;;;15.44;60.46
27144;BME280;14672;50.250;8.312;2023-03-23T06:56:12;97940.25;;;15.43;60.52
27144;BME280;14672;50.250;8.312;2023-03-23T06:58:39;97944.72;;;15.50;60.08
27144;BME280;14672;50.250;8.312;2023-03-23T07:01:08;97935.78;;;15.37;60.08
27144;BME280;14672;50.250;8.312;2023-03-23T07:03:35;97937.63;;;15.34;60.68
27144;BME280;14672;50.250;8.312;2023-03-23T07:06:02;97946.00;;;15.43;60.06
27144;BME280;14672;50.250;8.312;2023-03-23T07:08:29;97959.25;;;15.46;60.08
27144;BME280;14672;50.250;8.312;2023-03-23T07:10:56;97959.22;;;15.41;60.57
27144;BME280;14672;50.250;8.312;2023-03-23T07:13:22;97975.94;;;15.48;60.10
27144;BME280;14672;50.250;8.312;2023-03-23T07:15:48;97947.78;;;15.41;60.19
27144;BME280;14672;50.250;8.312;2023-03-23T07:18:16;97947.00;;;15.35;60.59
27144;BME280;14672;50.250;8.312;2023-03-23T07:20:42;97955.56;;;15.35;60.62
27144;BME280;14672;50.250;8.312;2023-03-23T07:23:08;97952.03;;;15.51;59.96
27144;BME280;14672;50.250;8.312;2023-03-23T07:25:35;97956.19;;;15.50;60.39
27144;BME280;14672;50.250;8.312;2023-03-23T07:28:02;97958.47;;;15.46;60.43
27144;BME280;14672;50.250;8.312;2023-03-23T07:30:29;97958.19;;;15.38;60.59
27144;BME280;14672;50.250;8.312;2023-03-23T07:32:56;97964.28;;;15.57;60.07
27144;BME280;14672;50.250;8.312;2023-03-23T07:35:23;97965.84;;;15.53;60.06
27144;BME280;14672;50.250;8.312;2023-03-23T07:37:49;97960.31;;;15.49;60.29
27144;BME280;14672;50.250;8.312;2023-03-23T07:40:15;97968.09;;;15.43;60.36
27144;BME280;14672;50.250;8.312;2023-03-23T07:42:43;97954.91;;;15.51;60.22
27144;BME280;14672;50.250;8.312;2023-03-23T07:45:12;97953.53;;;15.46;60.76
27144;BME280;14672;50.250;8.312;2023-03-23T07:47:39;97960.31;;;15.43;61.41
27144;BME280;14672;50.250;8.312;2023-03-23T07:50:06;97967.38;;;15.54;61.24
27144;BME280;14672;50.250;8.312;2023-03-23T07:52:34;97964.72;;;15.44;61.33
27144;BME280;14672;50.250;8.312;2023-03-23T07:55:00;97976.41;;;15.35;61.72
27144;BME280;14672;50.250;8.312;2023-03-23T07:57:30;97973.28;;;15.39;61.82
27144;BME280;14672;50.250;8.312;2023-03-23T07:59:56;97979.41;;;15.15;62.94
27144;BME280;14672;50.250;8.312;2023-03-23T08:02:24;97992.09;;;15.51;61.94
27144;BME280;14672;50.250;8.312;2023-03-23T08:04:50;97987.72;;;15.56;62.25
27144;BME280;14672;50.250;8.312;2023-03-23T08:07:17;97978.75;;;15.42;62.61
27144;BME280;14672;50.250;8.312;2023-03-23T08:09:45;97993.41;;;15.50;62.80
27144;BME280;14672;50.250;8.312;2023-03-23T08:12:12;97979.53;;;15.43;62.73
27144;BME280;14672;50.250;8.312;2023-03-23T08:14:39;97991.22;;;15.34;63.52
27144;BME280;14672;50.250;8.312;2023-03-23T08:17:07;97988.91;;;15.43;63.52
27144;BME280;14672;50.250;8.312;2023-03-23T08:19:35;97990.66;;;15.30;63.73
27144;BME280;14672;50.250;8.312;2023-03-23T08:22:05;97994.22;;;15.56;63.29
27144;BME280;14672;50.250;8.312;2023-03-23T08:24:32;98002.81;;;15.56;63.51
27144;BME280;14672;50.250;8.312;2023-03-23T08:26:59;98008.72;;;15.47;63.47
27144;BME280;14672;50.250;8.312;2023-03-23T08:29:26;98015.53;;;15.55;62.89
27144;BME280;14672;50.250;8.312;2023-03-23T08:31:52;98011.94;;;15.66;63.05
27144;BME280;14672;50.250;8.312;2023-03-23T08:34:19;98020.81;;;15.73;62.58
27144;BME280;14672;50.250;8.312;2023-03-23T08:36:45;98020.28;;;15.69;62.26
27144;BME280;14672;50.250;8.312;2023-03-23T08:39:13;98022.56;;;15.54;63.08
27144;BME280;14672;50.250;8.312;2023-03-23T08:41:41;98017.94;;;15.68;62.54
27144;BME280;14672;50.250;8.312;2023-03-23T08:44:06;98016.63;;;15.69;62.88
27144;BME280;14672;50.250;8.312;2023-03-23T08:46:34;98026.78;;;15.70;62.92
27144;BME280;14672;50.250;8.312;2023-03-23T08:49:00;98014.09;;;15.76;62.85
27144;BME280;14672;50.250;8.312;2023-03-23T08:51:26;98019.75;;;15.65;63.20
27144;BME280;14672;50.250;8.312;2023-03-23T08:53:52;98008.28;;;15.65;62.56
27144;BME280;14672;50.250;8.312;2023-03-23T08:56:18;98009.38;;;15.73;62.55
27144;BME280;14672;50.250;8.312;2023-03-23T08:58:44;98004.66;;;15.70;62.13
27144;BME280;14672;50.250;8.312;2023-03-23T09:01:10;98006.03;;;15.80;62.22
27144;BME280;14672;50.250;8.312;2023-03-23T09:03:37;98000.03;;;15.78;61.81
27144;BME280;14672;50.250;8.312;2023-03-23T09:06:06;98001.09;;;15.86;61.56
27144;BME280;14672;50.250;8.312;2023-03-23T09:08:32;98000.34;;;16.03;61.03
27144;BME280;14672;50.250;8.312;2023-03-23T09:10:59;97996.44;;;16.06;61.24
27144;BME280;14672;50.250;8.312;2023-03-23T09:13:26;98001.13;;;15.92;61.46
27144;BME280;14672;50.250;8.312;2023-03-23T09:15:52;97999.06;;;16.04;60.99
27144;BME280;14672;50.250;8.312;2023-03-23T09:18:18;97994.91;;;16.16;60.41
27144;BME280;14672;50.250;8.312;2023-03-23T09:20:45;97998.03;;;16.18;60.29
27144;BME280;14672;50.250;8.312;2023-03-23T09:23:12;98000.13;;;16.28;60.10
27144;BME280;14672;50.250;8.312;2023-03-23T09:25:38;98001.47;;;16.44;59.89
27144;BME280;14672;50.250;8.312;2023-03-23T09:28:05;98004.88;;;16.48;59.28
27144;BME280;14672;50.250;8.312;2023-03-23T09:30:33;98003.03;;;16.39;59.38
27144;BME280;14672;50.250;8.312;2023-03-23T09:33:04;98000.44;;;16.47;59.53
27144;BME280;14672;50.250;8.312;2023-03-23T09:35:32;98015.81;;;16.44;59.57
27144;BME280;14672;50.250;8.312;2023-03-23T09:38:00;98026.50;;;16.55;59.41
27144;BME280;14672;50.250;8.312;2023-03-23T09:40:41;98024.69;;;16.52;60.88
27144;BME280;14672;50.250;8.312;2023-03-23T09:48:56;98026.50;;;16.43;61.23
27144;BME280;14672;50.250;8.312;2023-03-23T09:51:52;98025.69;;;16.43;60.75
27144;BME280;14672;50.250;8.312;2023-03-23T09:54:35;98026.22;;;16.47;59.73
27144;BME280;14672;50.250;8.312;2023-03-23T09:57:03;98030.41;;;16.46;57.77
27144;BME280;14672;50.250;8.312;2023-03-23T10:00:02;98028.03;;;16.44;55.59
27144;BME280;14672;50.250;8.312;2023-03-23T10:03:00;98041.06;;;16.45;55.13
27144;BME280;14672;50.250;8.312;2023-03-23T10:05:41;98038.19;;;16.34;54.98
27144;BME280;14672;50.250;8.312;2023-03-23T10:08:35;98043.41;;;16.36;55.61
27144;BME280;14672;50.250;8.312;2023-03-23T10:11:18;98050.22;;;16.44;55.49
27144;BME280;14672;50.250;8.312;2023-03-23T10:22:31;98053.06;;;16.44;54.71
27144;BME280;14672;50.250;8.312;2023-03-23T10:27:58;98033.78;;;16.44;53.60
27144;BME280;14672;50.250;8.312;2023-03-23T10:30:57;98040.28;;;16.34;53.81
27144;BME280;14672;50.250;8.312;2023-03-23T10:33:48;98037.97;;;16.55;53.47
27144;BME280;14672;50.250;8.312;2023-03-23T10:36:22;98038.75;;;16.55;53.00
27144;BME280;14672;50.250;8.312;2023-03-23T10:39:13;98032.25;;;16.60;53.08
27144;BME280;14672;50.250;8.312;2023-03-23T10:41:41;98023.63;;;16.49;53.04
27144;BME280;14672;50.250;8.312;2023-03-23T10:44:20;98021.31;;;16.70;52.91
27144;BME280;14672;50.250;8.312;2023-03-23T10:47:02;98007.75;;;16.87;52.98
27144;BME280;14672;50.250;8.312;2023-03-23T10:49:45;98012.44;;;16.96;54.40
27144;BME280;14672;50.250;8.312;2023-03-23T10:52:31;98027.31;;;16.88;54.16
27144;BME280;14672;50.250;8.312;2023-03-23T10:55:07;98018.19;;;16.84;53.81
27144;BME280;14672;50.250;8.312;2023-03-23T10:57:37;98020.78;;;16.77;56.48
27144;BME280;14672;50.250;8.312;2023-03-23T11:00:24;98024.41;;;17.05;55.66
27144;BME280;14672;50.250;8.312;2023-03-23T11:03:04;98018.69;;;16.94;54.47
27144;BME280;14672;50.250;8.312;2023-03-23T11:05:52;98014.22;;;17.26;52.77
27144;BME280;14672;50.250;8.312;2023-03-23T11:08:28;98017.28;;;17.45;54.25
27144;BME280;14672;50.250;8.312;2023-03-23T11:11:20;98019.38;;;17.61;54.36
27144;BME280;14672;50.250;8.312;2023-03-23T11:14:01;98024.03;;;17.70;55.05
27144;BME280;14672;50.250;8.312;2023-03-23T11:16:32;98032.44;;;17.62;54.41
27144;BME280;14672;50.250;8.312;2023-03-23T11:19:11;98037.31;;;17.78;53.92
27144;BME280;14672;50.250;8.312;2023-03-23T11:21:39;98044.41;;;17.66;54.01
27144;BME280;14672;50.250;8.312;2023-03-23T11:24:05;98034.97;;;17.77;53.45
27144;BME280;14672;50.250;8.312;2023-03-23T11:26:35;98033.94;;;17.74;54.74
27144;BME280;14672;50.250;8.312;2023-03-23T11:29:19;98022.81;;;17.32;54.94
27144;BME280;14672;50.250;8.312;2023-03-23T11:34:35;98048.63;;;17.43;53.55
27144;BME280;14672;50.250;8.312;2023-03-23T11:37:41;98035.28;;;17.57;53.91
27144;BME280;14672;50.250;8.312;2023-03-23T11:45:22;98049.16;;;17.47;54.68
27144;BME280;14672;50.250;8.312;2023-03-23T11:56:33;98048.44;;;17.08;55.46
27144;BME280;14672;50.250;8.312;2023-03-23T11:59:00;98040.34;;;17.01;55.26
27144;BME280;14672;50.250;8.312;2023-03-23T12:01:47;98039.03;;;17.18;55.41
27144;BME280;14672;50.250;8.312;2023-03-23T12:11:02;98027.03;;;17.14;56.15
27144;BME280;14672;50.250;8.312;2023-03-23T12:13:46;98020.25;;;16.89;56.51
27144;BME280;14672;50.250;8.312;2023-03-23T12:16:32;98011.41;;;16.99;56.80
27144;BME280;14672;50.250;8.312;2023-03-23T12:25:05;98002.53;;;17.02;56.63
27144;BME280;14672;50.250;8.312;2023-03-23T12:34:17;97988.06;;;17.41;56.23
27144;BME280;14672;50.250;8.312;2023-03-23T12:48:44;97988.53;;;17.67;55.13
27144;BME280;14672;50.250;8.312;2023-03-23T12:51:31;97998.28;;;18.00;54.35
27144;BME280;14672;50.250;8.312;2023-03-23T12:57:12;98011.34;;;18.01;53.83
27144;BME280;14672;50.250;8.312;2023-03-23T13:02:44;97974.19;;;18.14;54.18
27144;BME280;14672;50.250;8.312;2023-03-23T13:08:13;97968.97;;;18.53;53.73
27144;BME280;14672;50.250;8.312;2023-03-23T13:10:49;97967.59;;;18.60;53.65
27144;BME280;14672;50.250;8.312;2023-03-23T13:13:39;97968.16;;;18.58;53.73
27144;BME280;14672;50.250;8.312;2023-03-23T13:16:13;97975.19;;;18.57;53.51
27144;BME280;14672;50.250;8.312;2023-03-23T13:19:13;97975.56;;;18.78;53.12
27144;BME280;14672;50.250;8.312;2023-03-23T13:22:09;97979.22;;;18.79;53.04
27144;BME280;14672;50.250;8.312;2023-03-23T13:24:59;97971.81;;;19.13;53.11
27144;BME280;14672;50.250;8.312;2023-03-23T13:27:27;97986.22;;;19.13;52.21
27144;BME280;14672;50.250;8.312;2023-03-23T13:29:56;97980.69;;;19.15;51.95
27144;BME280;14672;50.250;8.312;2023-03-23T13:32:37;97982.78;;;18.90;52.82
27144;BME280;14672;50.250;8.312;2023-03-23T13:35:13;97979.06;;;18.65;53.41
27144;BME280;14672;50.250;8.312;2023-03-23T13:37:50;97977.94;;;18.39;54.54
27144;BME280;14672;50.250;8.312;2023-03-23T13:40:29;97977.59;;;18.53;54.13
27144;BME280;14672;50.250;8.312;2023-03-23T13:42:59;97974.59;;;18.70;54.03
27144;BME280;14672;50.250;8.312;2023-03-23T13:50:58;97971.56;;;18.87;53.23
27144;BME280;14672;50.250;8.312;2023-03-23T13:53:46;97979.50;;;18.75;52.88
27144;BME280;14672;50.250;8.312;2023-03-23T13:57:01;97973.78;;;18.69;52.88
27144;BME280;14672;50.250;8.312;2023-03-23T14:01:53;97973.91;;;18.58;53.02
27144;BME280;14672;50.250;8.312;2023-03-23T14:04:22;97972.63;;;18.48;53.09
27144;BME280;14672;50.250;8.312;2023-03-23T14:06:50;97979.66;;;18.17;54.06
27144;BME280;14672;50.250;8.312;2023-03-23T14:09:19;97979.16;;;18.13;53.47
27144;BME280;14672;50.250;8.312;2023-03-23T14:12:04;97978.50;;;17.91;54.18
27144;BME280;14672;50.250;8.312;2023-03-23T14:14:47;97977.06;;;18.08;53.95
27144;BME280;14672;50.250;8.312;2023-03-23T14:17:25;97974.34;;;17.86;54.17
27144;BME280;14672;50.250;8.312;2023-03-23T14:19:55;97963.66;;;17.81;54.28
27144;BME280;14672;50.250;8.312;2023-03-23T14:22:37;97977.22;;;17.80;54.10
27144;BME280;14672;50.250;8.312;2023-03-23T14:25:18;97980.00;;;18.03;53.89
27144;BME280;14672;50.250;8.312;2023-03-23T14:27:47;97964.88;;;17.97;54.40
27144;BME280;14672;50.250;8.312;2023-03-23T14:30:16;97975.28;;;18.00;54.38
27144;BME280;14672;50.250;8.312;2023-03-23T14:32:44;97977.22;;;17.80;54.61
27144;BME280;14672;50.250;8.312;2023-03-23T14:35:27;97975.66;;;17.79;54.96
27144;BME280;14672;50.250;8.312;2023-03-23T14:37:55;97971.84;;;17.60;55.57
27144;BME280;14672;50.250;8.312;2023-03-23T14:40:22;97962.47;;;17.49;55.62
27144;BME280;14672;50.250;8.312;2023-03-23T14:42:51;97972.38;;;17.53;55.83
27144;BME280;14672;50.250;8.312;2023-03-23T14:45:21;97972.63;;;17.55;56.19
27144;BME280;14672;50.250;8.312;2023-03-23T14:48:00;97982.56;;;17.54;56.25
27144;BME280;14672;50.250;8.312;2023-03-23T14:51:05;97979.13;;;17.67;55.87
27144;BME280;14672;50.250;8.312;2023-03-23T14:53:40;97976.78;;;17.71;56.65
27144;BME280;14672;50.250;8.312;2023-03-23T14:56:15;97973.16;;;17.54;56.90
27144;BME280;14672;50.250;8.312;2023-03-23T14:58:48;97977.78;;;17.73;56.56
27144;BME280;14672;50.250;8.312;2023-03-23T15:01:24;97960.63;;;17.51;56.66
27144;BME280;14672;50.250;8.312;2023-03-23T15:04:17;97963.50;;;17.62;56.22